KMRF/MRF METAR and TAF weather

Enter ICAO airport designator
Station Type Date Time Source
KMRF METAR 2019/08/24 06:56 UTC NOAA

KMRF 240656Z AUTO 22004KT 10SM CLR 22/13 A3012 RMK AO2 SLP131 T02170128 403220150


Station Type Date Time Source
KMRF Decoded METAR 2019/08/24 06:56 UTC NOAA

Station name not available
Aug 24, 2019 - 02:56 AM EDT / 2019.08.24 0656 UTC
Wind: from the SW (220 degrees) at 5 MPH (4 KT):0
Visibility: 10 mile(s):0
Sky conditions: clear
Temperature: 71.1 F (21.7 C)
Dew Point: 55.0 F (12.8 C)
Relative Humidity: 56%
Pressure (altimeter): 30.12 in. Hg (1019 hPa)
ob: KMRF 240656Z AUTO 22004KT 10SM CLR 22/13 A3012 RMK AO2 SLP131 T02170128 403220150
cycle: 7

Station Type Date Time Source
KMRF TAF UTC NOAA

Error!

Example: see airport list